Hauptseite
METAR-TAF:

METAR-TAF

Flughäfen :

Irkutsk, Russland

Flughafen Irkutsk

Breite: 52-16N, Länge: 104-19E, Höhe: 513 m

Beobachtung

Neuester Wetterbericht von vor 42 Minuten, um 03:30 UTC
Wind 4 kt aus Nordwest, variierte zwischen West/Südwest und Nord
Temperatur 15°C
Luftfeuchtigkeit 20%
Luftdruck 1030 hPa
Sichtweite 10 km oder mehr
keine Wolken unter 1500 m und keine Kumulonimbus oder Gewitterwolken

METAR: UIII 260330Z 31002MPS 250V360 CAVOK 15/M08 Q1030 R12/CLRD60 NOSIG RMK QFE729/0972

Zeit: 12:12 (04:12 UTC)

Prognose

Neuester Wetterbericht von vor 2 Stunden und 12 Minuten, um 02:00 UTC
Gültige Prognose vom 26 um 03 UTC bis 27 um 03 UTC
Wind 6 kt aus Nordwest
Sichtweite 10 km oder mehr
keine Wolken unter 1500 m und keine Kumulonimbus oder Gewitterwolken
Übergehend zu
vom 26 um 05 UTC bis 26 um 06 UTC
Wind 10 kt aus Süd/Südost

TAF: UIII 260200Z 2603/2703 32003MPS CAVOK BECMG 2605/2606 16005MPS

Wetterbeobachtungen und Prognosen von mehr als 4000 Flughäfen (METAR und TAF Bericht).

Die verfügbaren Stationen werden durch gelbe und rote Markierungen auf der Karte dargestellt.

Führen Sie die Maus auf sie, um den Namen der Station zu sehen.

Darauf klicken, um die Beobachtung von Wetterbeobachtungen und Prognosen zu sehen.

Um die Karte zu ändern : klicken Sie auf den grünen Tasten mit einem schwarzen Kreuz Zum Vergrößern, auf den grünen Button mit einem Gedankenstrich zu verkleinern, oder auf die grünen Pfeile für benachbarte Karten.


METAR-TAF: